CMA CGM Volga — 9HA3846 — position and weather

sailwx.info

Track history (hours):
 
Tides and Currents Weather Stations Pressure Air Temp Water Temp Dewpoint Dewpoint Depression Visibility Wind Speed Wind Dir Waves Ship Positions

CMA CGM Volga

Last reported at 2018-May-13 06:17 UTC. Time now 2018-May-20 13:47 UTC.
Position N 01°29' E 103°04'.

Length 300 m; draft 14.2 m.

Type: Ship (hazmat cat A). MMSI: 256169000.

Date/timePositionNaut miles runAvg speedWind from/ knotsBaromVisibWave heightAir tempDewpointWater temp
2018-May-13 06:17N 01°29' E 103°04'620.3
2018-May-13 05:59N 01°26' E 103°09'1020.2
2018-May-13 05:29N 01°21' E 103°17'1019.6
2018-May-13 05:00N 01°15' E 103°25'918.2
2018-May-13 04:30N 01°12' E 103°34'611.6
2018-May-13 04:00N 01°12' E 103°39'4 8.2
2018-May-13 03:30N 01°15' E 103°43'4 7.6
2018-May-13 03:00N 01°15' E 103°47'1 2.0
2018-May-13 02:30N 01°16' E 103°47'0 0.1
2018-May-13 01:59N 01°16' E 103°47'0 0.0
2018-May-13 01:29N 01°16' E 103°47'0 0.0
2018-May-13 00:55N 01°16' E 103°47'0 0.0
2018-May-13 00:28N 01°16' E 103°47'0 0.0
2018-May-12 23:55N 01°16' E 103°47'0 0.0
2018-May-12 23:28N 01°16' E 103°47'0 0.0
2018-May-12 22:59N 01°16' E 103°47'0 0.0
2018-May-12 22:28N 01°16' E 103°47'0 0.0
2018-May-12 21:58N 01°16' E 103°47'0 0.0
2018-May-12 21:29N 01°16' E 103°47'0 0.0
2018-May-12 20:59N 01°16' E 103°47'0 0.0
2018-May-12 20:29N 01°16' E 103°47'0 0.0
2018-May-12 19:58N 01°16' E 103°47'0 0.0
2018-May-12 19:29N 01°16' E 103°47'0 0.0
2018-May-12 18:58N 01°16' E 103°47'0 0.0
2018-May-12 18:28N 01°16' E 103°47'0 0.0
2018-May-12 17:58N 01°16' E 103°47'0 0.0
2018-May-12 17:29N 01°16' E 103°47'0 0.0
2018-May-12 16:59N 01°16' E 103°47'0 0.0
2018-May-12 16:29N 01°16' E 103°47'0 0.0
2018-May-12 15:59N 01°16' E 103°47'0 0.0
2018-May-12 15:26N 01°16' E 103°47'0 0.0
2018-May-12 14:59N 01°16' E 103°47'0 0.0
2018-May-12 14:25N 01°16' E 103°47'0 0.0
2018-May-12 13:59N 01°16' E 103°47'0 0.0
2018-May-12 13:29N 01°16' E 103°47'0 0.0
2018-May-12 12:59N 01°16' E 103°47'0 0.0
2018-May-12 12:25N 01°16' E 103°47'0 0.0
2018-May-12 11:58N 01°16' E 103°47'0 0.0
2018-May-12 11:26N 01°16' E 103°47'0 0.0
2018-May-12 11:00N 01°16' E 103°47'0 0.5
2018-May-12 10:31N 01°16' E 103°48'2 3.8
2018-May-12 10:00N 01°14' E 103°47'510.2
2018-May-12 09:29N 01°13' E 103°53'1 2.6
2018-May-12 09:00N 01°14' E 103°53'0 0.0
2018-May-12 08:27N 01°14' E 103°53'0 0.1
2018-May-12 07:58N 01°14' E 103°53'0 0.2
2018-May-12 07:22N 01°14' E 103°54'0 0.0
2018-May-12 07:00N 01°14' E 103°54'0 0.0
2018-May-12 06:27N 01°14' E 103°54'0 0.0
2018-May-12 05:57N 01°14' E 103°54'0 0.0
2018-May-12 05:30N 01°14' E 103°54'0 0.0
2018-May-12 05:00N 01°14' E 103°54'0 0.1
2018-May-12 04:30N 01°14' E 103°53'0 0.1
2018-May-12 03:58N 01°14' E 103°53'0 0.1
2018-May-12 03:28N 01°14' E 103°53'0 0.1
2018-May-12 03:00N 01°14' E 103°53'0 0.0
2018-May-12 02:30N 01°14' E 103°53'0 0.0
2018-May-12 01:54N 01°14' E 103°53'0 0.1
2018-May-12 01:30N 01°14' E 103°53'0 0.0
2018-May-12 01:00N 01°14' E 103°53'0 0.0
2018-May-12 00:28N 01°14' E 103°53'0 0.0
2018-May-11 23:58N 01°14' E 103°53'0 0.0
2018-May-11 23:27N 01°14' E 103°53'0 0.1
2018-May-11 23:00N 01°14' E 103°53'1 1.7
2018-May-11 22:30N 01°13' E 103°54'3 5.5
2018-May-11 22:00N 01°14' E 103°56'4 8.9
2018-May-11 21:30N 01°16' E 104°00'610.4
2018-May-11 20:56N 01°17' E 104°06'1 2.2
2018-May-11 20:30N 01°17' E 104°07'3 5.5
2018-May-11 19:58N 01°17' E 104°10'511.2
2018-May-11 19:30N 01°18' E 104°15'712.9
2018-May-11 18:57N 01°20' E 104°22'613.3
2018-May-11 18:29N 01°24' E 104°27'610.9
2018-May-11 17:58N 01°28' E 104°31'610.4
2018-May-11 17:24N 01°33' E 104°34'3413.1
2018-May-11 14:49N 02°03' E 104°49'  
2018-May-07 05:57N 23°14' E 117°36'918.7
2018-May-07 05:27N 23°19' E 117°45'918.7
2018-May-07 04:59N 23°25' E 117°52'918.9
2018-May-07 04:30N 23°31' E 117°60'1519.3
2018-May-07 03:43N 23°41' E 118°12'419.7
2018-May-07 03:30N 23°44' E 118°15'1019.7
2018-May-07 02:59N 23°51' E 118°23'1119.7
2018-May-07 02:24N 23°58' E 118°33'919.8
2018-May-07 01:56N 24°04' E 118°40'  
2018-May-04 11:39N 29°53' E 123°10'5117.5
2018-May-04 08:42N 30°17' E 124°03'416.5
2018-May-04 08:26N 30°20' E 124°07'  
Track history (hours):
 
Tides and Currents Weather Stations Pressure Air Temp Water Temp Dewpoint Dewpoint Depression Visibility Wind Speed Wind Dir Waves Ship Positions

CMA CGM Volga

Last reported at 2018-May-13 06:17 UTC. Time now 2018-May-20 13:47 UTC.
Position N 01°29' E 103°04'.

Length 300 m; draft 14.2 m.

Type: Ship (hazmat cat A). MMSI: 256169000.

Date/timePositionNaut miles runAvg speedWind from/ knotsBaromVisibWave heightAir tempDewpointWater temp
2018-May-13 06:17N 01°29' E 103°04'620.3
2018-May-13 05:59N 01°26' E 103°09'1020.2
2018-May-13 05:29N 01°21' E 103°17'1019.6
2018-May-13 05:00N 01°15' E 103°25'918.2
2018-May-13 04:30N 01°12' E 103°34'611.6
2018-May-13 04:00N 01°12' E 103°39'4 8.2
2018-May-13 03:30N 01°15' E 103°43'4 7.6
2018-May-13 03:00N 01°15' E 103°47'1 2.0
2018-May-13 02:30N 01°16' E 103°47'0 0.1
2018-May-13 01:59N 01°16' E 103°47'0 0.0
2018-May-13 01:29N 01°16' E 103°47'0 0.0
2018-May-13 00:55N 01°16' E 103°47'0 0.0
2018-May-13 00:28N 01°16' E 103°47'0 0.0
2018-May-12 23:55N 01°16' E 103°47'0 0.0
2018-May-12 23:28N 01°16' E 103°47'0 0.0
2018-May-12 22:59N 01°16' E 103°47'0 0.0
2018-May-12 22:28N 01°16' E 103°47'0 0.0
2018-May-12 21:58N 01°16' E 103°47'0 0.0
2018-May-12 21:29N 01°16' E 103°47'0 0.0
2018-May-12 20:59N 01°16' E 103°47'0 0.0
2018-May-12 20:29N 01°16' E 103°47'0 0.0
2018-May-12 19:58N 01°16' E 103°47'0 0.0
2018-May-12 19:29N 01°16' E 103°47'0 0.0
2018-May-12 18:58N 01°16' E 103°47'0 0.0
2018-May-12 18:28N 01°16' E 103°47'0 0.0
2018-May-12 17:58N 01°16' E 103°47'0 0.0
2018-May-12 17:29N 01°16' E 103°47'0 0.0
2018-May-12 16:59N 01°16' E 103°47'0 0.0
2018-May-12 16:29N 01°16' E 103°47'0 0.0
2018-May-12 15:59N 01°16' E 103°47'0 0.0
2018-May-12 15:26N 01°16' E 103°47'0 0.0
2018-May-12 14:59N 01°16' E 103°47'0 0.0
2018-May-12 14:25N 01°16' E 103°47'0 0.0
2018-May-12 13:59N 01°16' E 103°47'0 0.0
2018-May-12 13:29N 01°16' E 103°47'0 0.0
2018-May-12 12:59N 01°16' E 103°47'0 0.0
2018-May-12 12:25N 01°16' E 103°47'0 0.0
2018-May-12 11:58N 01°16' E 103°47'0 0.0
2018-May-12 11:26N 01°16' E 103°47'0 0.0
2018-May-12 11:00N 01°16' E 103°47'0 0.5
2018-May-12 10:31N 01°16' E 103°48'2 3.8
2018-May-12 10:00N 01°14' E 103°47'510.2
2018-May-12 09:29N 01°13' E 103°53'1 2.6
2018-May-12 09:00N 01°14' E 103°53'0 0.0
2018-May-12 08:27N 01°14' E 103°53'0 0.1
2018-May-12 07:58N 01°14' E 103°53'0 0.2
2018-May-12 07:22N 01°14' E 103°54'0 0.0
2018-May-12 07:00N 01°14' E 103°54'0 0.0
2018-May-12 06:27N 01°14' E 103°54'0 0.0
2018-May-12 05:57N 01°14' E 103°54'0 0.0
2018-May-12 05:30N 01°14' E 103°54'0 0.0
2018-May-12 05:00N 01°14' E 103°54'0 0.1
2018-May-12 04:30N 01°14' E 103°53'0 0.1
2018-May-12 03:58N 01°14' E 103°53'0 0.1
2018-May-12 03:28N 01°14' E 103°53'0 0.1
2018-May-12 03:00N 01°14' E 103°53'0 0.0
2018-May-12 02:30N 01°14' E 103°53'0 0.0
2018-May-12 01:54N 01°14' E 103°53'0 0.1
2018-May-12 01:30N 01°14' E 103°53'0 0.0
2018-May-12 01:00N 01°14' E 103°53'0 0.0
2018-May-12 00:28N 01°14' E 103°53'0 0.0
2018-May-11 23:58N 01°14' E 103°53'0 0.0
2018-May-11 23:27N 01°14' E 103°53'0 0.1
2018-May-11 23:00N 01°14' E 103°53'1 1.7
2018-May-11 22:30N 01°13' E 103°54'3 5.5
2018-May-11 22:00N 01°14' E 103°56'4 8.9
2018-May-11 21:30N 01°16' E 104°00'610.4
2018-May-11 20:56N 01°17' E 104°06'1 2.2
2018-May-11 20:30N 01°17' E 104°07'3 5.5
2018-May-11 19:58N 01°17' E 104°10'511.2
2018-May-11 19:30N 01°18' E 104°15'712.9
2018-May-11 18:57N 01°20' E 104°22'613.3
2018-May-11 18:29N 01°24' E 104°27'610.9
2018-May-11 17:58N 01°28' E 104°31'610.4
2018-May-11 17:24N 01°33' E 104°34'3413.1
2018-May-11 14:49N 02°03' E 104°49'  
2018-May-07 05:57N 23°14' E 117°36'918.7
2018-May-07 05:27N 23°19' E 117°45'918.7
2018-May-07 04:59N 23°25' E 117°52'918.9
2018-May-07 04:30N 23°31' E 117°60'1519.3
2018-May-07 03:43N 23°41' E 118°12'419.7
2018-May-07 03:30N 23°44' E 118°15'1019.7
2018-May-07 02:59N 23°51' E 118°23'1119.7
2018-May-07 02:24N 23°58' E 118°33'919.8
2018-May-07 01:56N 24°04' E 118°40'  
2018-May-04 11:39N 29°53' E 123°10'5117.5
2018-May-04 08:42N 30°17' E 124°03'416.5
2018-May-04 08:26N 30°20' E 124°07'  

Dump ship's entire track history